To NAV CANADA Home Page Login to a new session Search on AWWS site Disclaimer Vers la page française équivalente Tips FAQ What's new on the site To the Forecasts and Observations / NOTAM section To "File a Flight Plan" website Publications and other links Update of the User's profile FIC Telephone Numbers My Weather Data Folder Route Weather Data Regional Weather Data Local Weather Data To the Forecasts and Observations / NOTAM section
Request Generated 01/22/2019 at 02:38:44 UTC . Weather information available at that time is displayed.

METAR/TAF

TORONTO/BILLY BISHOP TORONTO CITY AIRPORT/ON    (show WxCam)

METAR CYTZ 220200Z AUTO 28007KT 9SM CLR M13/M19 A3056 RMK SLP356=
METAR CYTZ 220100Z AUTO 32008G17KT 9SM CLR M12/M20 A3053 RMK SLP348=
METAR CYTZ 220000Z AUTO 29012KT 9SM CLR M12/M20 A3053 RMK SLP347=

TAF CYTZ 220138Z 2202/2302 31008KT P6SM SKC
FM220600 32005KT P6SM SCT250
FM221500 09005KT P6SM BKN120 OVC220
FM221800 10012KT P6SM OVC100
RMK FCST BASED ON AUTO OBS. NXT FCST BY 220800Z=
Your time UTC time
Weather data provided by Environment Canada and NAV CANADA